Time;durP1;ratioP1;P1;durP2;ratioP2;P2;SDS_P1;SDS_P2;PMS_P1;PMS_P2;Temp;Humidity;BMP_temperature;BMP_pressure;BME280_temperature;BME280_humidity;BME280_pressure;Samples;Min_cycle;Max_cycle;Signal;HPM_P1;HPM_P2
2023/04/01 00:01:57;;;;;;;8.02;2.63;;;;;;;8.41;100.00;99122.75;5080019;28;20078;-83
2023/04/01 00:04:22;;;;;;;11.30;3.00;;;;;;;8.44;100.00;99113.94;5099324;28;20039;-81
2023/04/01 00:06:48;;;;;;;8.07;3.00;;;;;;;8.39;100.00;99121.25;5099168;28;20059;-82
2023/04/01 00:09:13;;;;;;;6.82;2.83;;;;;;;8.34;100.00;99117.28;5099122;28;20028;-82
2023/04/01 00:11:39;;;;;;;8.95;2.90;;;;;;;8.33;100.00;99112.22;5099207;28;20028;-83
2023/04/01 00:14:05;;;;;;;8.52;3.00;;;;;;;8.26;100.00;99101.63;5098989;28;20034;-81
2023/04/01 00:16:31;;;;;;;6.90;3.47;;;;;;;8.40;100.00;99121.13;5099097;28;20032;-82
2023/04/01 00:18:56;;;;;;;9.85;3.80;;;;;;;8.28;100.00;99117.75;5098815;28;20059;-81
2023/04/01 00:21:22;;;;;;;10.95;4.72;;;;;;;8.42;100.00;99137.22;5099301;28;20377;-83
2023/04/01 00:23:48;;;;;;;7.32;3.65;;;;;;;8.42;100.00;99139.00;5098815;28;20062;-83
2023/04/01 00:26:18;;;;;;;9.25;4.55;;;;;;;8.34;100.00;99124.13;5099295;28;20032;-81
2023/04/01 00:28:44;;;;;;;9.68;4.90;;;;;;;8.40;100.00;99136.53;5099052;28;20051;-82
2023/04/01 00:31:10;;;;;;;8.57;4.18;;;;;;;8.20;100.00;99109.03;5099093;28;20055;-83
2023/04/01 00:33:37;;;;;;;10.57;5.43;;;;;;;8.41;100.00;99134.78;5098913;28;20020;-82
2023/04/01 00:36:13;;;;;;;10.82;5.65;;;;;;;8.27;100.00;99113.56;5099196;28;20047;-79
2023/04/01 00:38:40;;;;;;;9.65;5.75;;;;;;;8.41;100.00;99140.75;5098598;28;20508;-78
2023/04/01 00:41:06;;;;;;;11.23;5.90;;;;;;;8.41;100.00;99145.06;5098930;28;20443;-76
2023/04/01 00:43:32;;;;;;;10.75;6.40;;;;;;;8.41;100.00;99140.75;5098657;28;20024;-75
2023/04/01 00:45:57;;;;;;;12.07;6.63;;;;;;;8.44;100.00;99144.81;5098792;28;20504;-77
2023/04/01 00:48:28;;;;;;;13.65;8.05;;;;;;;8.31;100.00;99124.41;5098673;28;20466;-74
2023/04/01 00:51:09;;;;;;;13.32;7.32;;;;;;;8.37;100.00;99141.13;5098932;28;20052;-75
2023/04/01 00:53:38;;;;;;;14.43;8.10;;;;;;;8.40;100.00;99143.44;5098697;28;20024;-78
2023/04/01 00:56:10;;;;;;;12.82;7.97;;;;;;;8.27;100.00;99123.84;5098778;28;20635;-75
2023/04/01 00:58:40;;;;;;;12.77;8.45;;;;;;;8.47;100.00;99160.03;5098669;28;20020;-75
2023/04/01 01:01:06;;;;;;;12.63;8.57;;;;;;;8.43;100.00;99162.00;5098758;28;20526;-76
2023/04/01 01:03:31;;;;;;;11.57;8.30;;;;;;;8.50;100.00;99159.78;5098624;28;20030;-76
2023/04/01 01:06:23;;;;;;;15.00;9.13;;;;;;;8.47;100.00;99160.03;5098885;28;20024;-76
2023/04/01 01:09:03;;;;;;;14.45;9.38;;;;;;;8.49;100.00;99160.72;5098440;28;20035;-76
2023/04/01 01:12:06;;;;;;;12.97;8.83;;;;;;;8.49;100.00;99161.53;5095939;28;20039;-77
2023/04/01 01:15:05;;;;;;;14.15;10.05;;;;;;;8.39;100.00;99150.34;4993572;28;20329;-74
2023/04/01 01:17:39;;;;;;;15.15;9.45;;;;;;;8.47;100.00;99160.03;4993316;28;20026;-75
2023/04/01 01:20:20;;;;;;;13.75;10.13;;;;;;;8.50;100.00;99170.06;4993667;28;20072;-75
2023/04/01 01:22:52;;;;;;;14.30;10.18;;;;;;;8.50;100.00;99170.88;4993452;28;20049;-77
2023/04/01 01:25:38;;;;;;;15.32;10.02;;;;;;;8.50;100.00;99172.63;4993213;28;20043;-78
2023/04/01 01:28:25;;;;;;;14.00;10.15;;;;;;;8.49;100.00;99174.38;4993450;28;20483;-77
2023/04/01 01:31:54;;;;;;;14.82;10.20;;;;;;;8.49;100.00;99174.38;4993557;28;20053;-76
2023/04/01 01:34:33;;;;;;;14.68;10.45;;;;;;;8.48;100.00;99177.09;4935395;29;20465;-75
2023/04/01 01:37:03;;;;;;;14.82;10.20;;;;;;;8.46;100.00;99166.13;4935272;29;20116;-75
2023/04/01 01:39:33;;;;;;;13.43;10.10;;;;;;;8.45;100.00;99172.97;4935076;29;20055;-75
2023/04/01 01:42:03;;;;;;;13.35;9.18;;;;;;;8.51;100.00;99176.84;4935367;29;20036;-74
2023/04/01 01:44:30;;;;;;;13.80;9.93;;;;;;;8.45;100.00;99178.13;4935373;29;20039;-77
2023/04/01 01:46:57;;;;;;;13.63;9.68;;;;;;;8.51;100.00;99192.28;4935175;29;20024;-81
2023/04/01 01:49:24;;;;;;;12.57;8.40;;;;;;;8.39;100.00;99172.69;4935084;29;20051;-76
2023/04/01 01:51:49;;;;;;;13.38;7.57;;;;;;;8.48;100.00;99182.25;5006796;28;20048;-78
2023/04/01 01:54:18;;;;;;;10.70;6.43;;;;;;;8.53;100.00;99198.91;5012410;28;20121;-76
2023/04/01 01:56:51;;;;;;;10.05;6.13;;;;;;;8.52;100.00;99189.56;5012883;28;20190;-78
2023/04/01 01:59:19;;;;;;;8.82;5.63;;;;;;;8.53;100.00;99195.53;5012513;28;20105;-78
2023/04/01 02:01:49;;;;;;;8.98;6.00;;;;;;;8.49;100.00;99192.41;5012583;28;20522;-75
2023/04/01 02:04:17;;;;;;;9.77;7.07;;;;;;;8.41;100.00;99179.31;5040081;28;20063;-74
2023/04/01 02:06:52;;;;;;;8.43;5.85;;;;;;;8.43;100.00;99192.88;5094388;28;20028;-72
2023/04/01 02:09:18;;;;;;;9.80;5.32;;;;;;;8.24;100.00;99165.22;5094149;28;20500;-75
2023/04/01 02:11:52;;;;;;;8.15;4.82;;;;;;;8.48;100.00;99195.09;5094255;28;20069;-75
2023/04/01 02:14:21;;;;;;;6.55;4.15;;;;;;;8.47;100.00;99206.31;5094064;28;20043;-74
2023/04/01 02:16:53;;;;;;;8.82;5.40;;;;;;;8.45;100.00;99209.00;5094286;28;20020;-74
2023/04/01 02:19:24;;;;;;;9.38;6.82;;;;;;;8.38;100.00;99202.72;5094136;28;20024;-74
2023/04/01 02:21:57;;;;;;;12.15;8.48;;;;;;;8.31;100.00;99189.50;5093909;28;20073;-74
2023/04/01 02:24:26;;;;;;;11.18;7.50;;;;;;;8.39;100.00;99214.66;5093007;28;20054;-75
2023/04/01 02:26:52;;;;;;;11.00;5.43;;;;;;;8.35;100.00;99215.81;5093798;28;20046;-73
2023/04/01 02:29:21;;;;;;;9.63;5.40;;;;;;;8.26;100.00;99195.97;5094107;28;20028;-73
2023/04/01 02:31:46;;;;;;;10.40;5.60;;;;;;;8.20;100.00;99197.25;5093973;28;20016;-73
2023/04/01 02:34:13;;;;;;;8.65;4.97;;;;;;;8.21;100.00;99206.59;5093813;28;20020;-73
2023/04/01 02:36:39;;;;;;;8.63;4.78;;;;;;;8.28;100.00;99225.75;5093742;28;20036;-75
2023/04/01 02:39:05;;;;;;;8.20;4.32;;;;;;;8.26;100.00;99219.94;5093570;28;20103;-75
2023/04/01 02:41:31;;;;;;;6.82;4.18;;;;;;;8.17;100.00;99205.22;5093727;28;20027;-75
2023/04/01 02:43:58;;;;;;;8.07;3.67;;;;;;;8.25;100.00;99222.59;5074649;28;20393;-74
2023/04/01 02:46:24;;;;;;;9.07;4.30;;;;;;;8.21;100.00;99224.59;5093685;28;20024;-75
2023/04/01 02:48:49;;;;;;;10.32;4.60;;;;;;;8.07;100.00;99194.03;5093551;28;20058;-74
2023/04/01 02:51:15;;;;;;;8.20;4.65;;;;;;;8.24;100.00;99228.69;5093620;28;20056;-75
2023/04/01 02:53:40;;;;;;;9.35;5.57;;;;;;;8.22;100.00;99226.22;5093516;28;20036;-74
2023/04/01 02:56:05;;;;;;;7.38;4.43;;;;;;;8.23;100.00;99232.19;5093262;28;20691;-74
2023/04/01 02:58:30;;;;;;;7.43;4.43;;;;;;;8.21;100.00;99227.16;5093265;28;20420;-74
2023/04/01 03:00:56;;;;;;;7.85;4.38;;;;;;;8.22;100.00;99238.28;5093317;28;20595;-75
2023/04/01 03:03:21;;;;;;;7.97;4.18;;;;;;;8.20;100.00;99238.41;5093172;28;20020;-75
2023/04/01 03:05:47;;;;;;;10.25;5.40;;;;;;;8.17;100.00;99238.66;5093256;28;20027;-74
2023/04/01 03:08:12;;;;;;;11.55;6.43;;;;;;;8.02;100.00;99214.94;5093285;28;20024;-75
2023/04/01 03:10:37;;;;;;;9.68;6.40;;;;;;;8.15;100.00;99237.09;5093081;28;20027;-77
2023/04/01 03:13:03;;;;;;;11.90;6.68;;;;;;;8.19;100.00;99246.25;5093048;28;20039;-76
2023/04/01 03:15:28;;;;;;;11.35;7.78;;;;;;;8.19;100.00;99251.38;5093294;28;20020;-75
2023/04/01 03:17:53;;;;;;;12.13;7.38;;;;;;;8.07;100.00;99221.50;5093148;28;20035;-76
2023/04/01 03:20:20;;;;;;;12.73;8.05;;;;;;;7.96;100.00;99212.03;5093153;28;20469;-75
2023/04/01 03:22:45;;;;;;;14.85;8.85;;;;;;;8.18;100.00;99244.59;5088699;28;20469;-75
2023/04/01 03:25:11;;;;;;;13.95;8.65;;;;;;;8.17;100.00;99245.53;5072870;28;20033;-77
2023/04/01 03:27:37;;;;;;;12.93;8.90;;;;;;;8.13;100.00;99250.09;5072864;28;20074;-77
2023/04/01 03:30:04;;;;;;;15.52;9.20;;;;;;;8.15;100.00;99260.25;5072622;28;20386;-75
2023/04/01 03:32:30;;;;;;;13.73;8.25;;;;;;;8.09;100.00;99247.91;5054717;28;20112;-76
2023/04/01 03:34:55;;;;;;;13.85;8.45;;;;;;;8.15;100.00;99255.09;5072388;28;20024;-78
2023/04/01 03:37:20;;;;;;;13.93;7.93;;;;;;;7.89;100.00;99211.69;5072855;28;20386;-78
2023/04/01 03:39:46;;;;;;;13.82;8.68;;;;;;;7.99;100.00;99238.31;5072693;28;20024;-77
2023/04/01 03:42:12;;;;;;;13.98;7.55;;;;;;;7.97;100.00;99240.19;5072648;28;20528;-76
2023/04/01 03:44:37;;;;;;;13.35;7.60;;;;;;;7.91;100.00;99230.38;5072373;28;20426;-78
2023/04/01 03:47:03;;;;;;;10.15;6.20;;;;;;;7.94;100.00;99239.59;5072725;28;20055;-77
2023/04/01 03:49:28;;;;;;;8.23;5.18;;;;;;;7.93;100.00;99243.94;5072458;28;20068;-76
2023/04/01 03:51:53;;;;;;;9.75;5.38;;;;;;;8.03;100.00;99269.75;5072302;28;20527;-76
2023/04/01 03:54:19;;;;;;;10.93;5.68;;;;;;;8.03;100.00;99267.16;5054398;28;20036;-76
2023/04/01 03:56:45;;;;;;;8.35;5.25;;;;;;;8.00;100.00;99265.66;5072443;28;20112;-77
2023/04/01 03:59:11;;;;;;;8.25;5.18;;;;;;;8.03;100.00;99269.75;5072085;28;20111;-78
2023/04/01 04:01:36;;;;;;;8.70;5.45;;;;;;;7.94;100.00;99262.72;5072211;28;20066;-76
2023/04/01 04:04:01;;;;;;;7.90;5.07;;;;;;;7.96;100.00;99263.44;5072254;28;20025;-82
2023/04/01 04:06:27;;;;;;;8.57;5.28;;;;;;;7.83;100.00;99245.56;5072226;28;20059;-82
2023/04/01 04:08:53;;;;;;;9.23;5.18;;;;;;;7.99;100.00;99278.63;5072361;28;20027;-80
2023/04/01 04:11:19;;;;;;;8.45;5.00;;;;;;;7.74;100.00;99241.13;5072143;28;20119;-83
2023/04/01 04:13:45;;;;;;;7.82;4.45;;;;;;;7.93;100.00;99279.09;5072138;28;20074;-81
2023/04/01 04:16:11;;;;;;;9.40;4.40;;;;;;;7.93;100.00;99279.91;5071983;28;20033;-82
2023/04/01 04:18:37;;;;;;;7.53;4.65;;;;;;;7.81;100.00;99272.34;5072353;28;20035;-83
2023/04/01 04:21:03;;;;;;;7.80;4.68;;;;;;;7.87;100.00;99282.16;5072361;28;20028;-82
2023/04/01 04:23:30;;;;;;;8.52;4.68;;;;;;;7.89;100.00;99295.69;5054244;28;20436;-82
2023/04/01 04:26:03;;;;;;;8.88;4.47;;;;;;;7.89;100.00;99303.41;5072024;28;20051;-82
2023/04/01 04:28:29;;;;;;;8.60;4.85;;;;;;;7.87;100.00;99292.44;5072015;28;20025;-84
2023/04/01 04:30:55;;;;;;;7.85;5.20;;;;;;;7.75;100.00;99287.25;5072201;28;20028;-83
2023/04/01 04:33:22;;;;;;;8.27;5.25;;;;;;;7.88;100.00;99305.16;5072049;28;20113;-82
2023/04/01 04:35:47;;;;;;;10.60;4.90;;;;;;;7.74;100.00;99280.50;5072215;28;20031;-82
2023/04/01 04:38:13;;;;;;;12.32;5.88;;;;;;;7.84;100.00;99296.03;5072075;28;20024;-82
2023/04/01 04:40:39;;;;;;;9.98;6.25;;;;;;;7.88;100.00;99312.88;5071831;28;20422;-83
2023/04/01 04:43:04;;;;;;;9.48;5.68;;;;;;;7.81;100.00;99303.97;5071751;28;20025;-80
2023/04/01 04:45:30;;;;;;;11.60;6.13;;;;;;;7.75;100.00;99300.13;5071802;28;20060;-81
2023/04/01 04:47:55;;;;;;;8.98;5.38;;;;;;;7.81;100.00;99306.56;5057345;28;20024;-82
2023/04/01 04:50:21;;;;;;;9.43;5.70;;;;;;;7.84;100.00;99320.91;5075671;28;20406;-82
2023/04/01 04:52:46;;;;;;;9.02;5.05;;;;;;;7.76;100.00;99303.50;5057841;28;20020;-82
2023/04/01 04:55:12;;;;;;;8.77;4.70;;;;;;;7.86;100.00;99326.75;5075467;28;20024;-82
2023/04/01 04:57:37;;;;;;;10.25;5.40;;;;;;;7.83;100.00;99327.00;5075464;28;20031;-82
2023/04/01 05:00:03;;;;;;;10.35;5.60;;;;;;;7.81;100.00;99327.09;5057581;28;20162;-82
2023/04/01 05:02:29;;;;;;;8.57;5.35;;;;;;;7.86;100.00;99335.28;5075304;28;20111;-80
2023/04/01 05:04:54;;;;;;;9.68;5.95;;;;;;;7.85;100.00;99337.97;5075490;28;20113;-82
2023/04/01 05:07:19;;;;;;;9.80;5.47;;;;;;;7.87;100.00;99333.56;5075498;28;20048;-78
2023/04/01 05:09:45;;;;;;;9.88;6.25;;;;;;;7.89;100.00;99336.81;5075361;28;20062;-81
2023/04/01 05:12:12;;;;;;;11.65;6.43;;;;;;;7.90;100.00;99351.31;5075205;28;20418;-83
2023/04/01 05:14:38;;;;;;;12.50;7.03;;;;;;;7.92;100.00;99347.69;5075096;28;20466;-82
2023/04/01 05:17:03;;;;;;;10.57;6.82;;;;;;;7.88;100.00;99348.03;5074925;28;20038;-82
2023/04/01 05:19:28;;;;;;;11.25;6.55;;;;;;;7.75;100.00;99325.00;5075178;28;20021;-80
2023/04/01 05:21:54;;;;;;;10.50;6.55;;;;;;;7.80;100.00;99340.91;5075138;28;20121;-81
2023/04/01 05:24:19;;;;;;;11.38;7.57;;;;;;;7.87;100.00;99356.69;5075073;28;20035;-81
2023/04/01 05:26:44;;;;;;;11.98;7.70;;;;;;;7.92;100.00;99363.09;5074925;28;20033;-81
2023/04/01 05:29:10;;;;;;;9.75;6.47;;;;;;;7.85;100.00;99358.53;5075076;28;20052;-80
2023/04/01 05:31:35;;;;;;;10.27;7.10;;;;;;;7.93;100.00;99377.59;5057072;28;20024;-80
2023/04/01 05:34:01;;;;;;;10.63;6.97;;;;;;;7.89;100.00;99371.03;5074886;28;20500;-80
2023/04/01 05:36:26;;;;;;;9.90;7.18;;;;;;;7.95;100.00;99374.88;5074829;28;20469;-80
2023/04/01 05:38:55;;;;;;;10.38;7.15;;;;;;;7.94;100.00;99383.53;5074755;28;20032;-81
2023/04/01 05:41:20;;;;;;;11.90;7.65;;;;;;;7.97;100.00;99378.19;5074479;28;20484;-76
2023/04/01 05:43:45;;;;;;;11.93;7.68;;;;;;;8.00;100.00;99385.66;5074595;28;20028;-76
2023/04/01 05:46:11;;;;;;;13.07;8.25;;;;;;;8.01;100.00;99400.16;5081268;28;20031;-73
2023/04/01 05:48:36;;;;;;;14.25;9.05;;;;;;;7.78;100.00;99354.81;5094660;28;20109;-78
2023/04/01 05:51:03;;;;;;;13.82;9.52;;;;;;;7.99;100.00;99389.97;5094657;28;20428;-77
2023/04/01 05:53:28;;;;;;;15.70;10.63;;;;;;;7.95;100.00;99380.03;5094885;28;20093;-76
2023/04/01 05:55:54;;;;;;;17.05;10.45;;;;;;;8.14;100.00;99400.03;5094741;28;20071;-76
2023/04/01 05:58:19;;;;;;;18.40;12.25;;;;;;;8.09;100.00;99394.44;5094143;28;20031;-77
2023/04/01 06:00:44;;;;;;;17.90;12.02;;;;;;;8.14;100.00;99405.19;5094856;28;20020;-78
2023/04/01 06:03:10;;;;;;;20.23;12.75;;;;;;;8.15;100.00;99406.81;5094437;28;20465;-76
2023/04/01 06:05:44;;;;;;;19.48;12.77;;;;;;;7.95;100.00;99374.88;5094243;28;20032;-77
2023/04/01 06:08:12;;;;;;;22.23;14.13;;;;;;;8.27;100.00;99427.28;5075908;28;20046;-76
2023/04/01 06:11:00;;;;;;;21.60;14.70;;;;;;;8.29;100.00;99427.19;5094478;28;20024;-76
2023/04/01 06:13:26;;;;;;;24.38;15.55;;;;;;;8.32;100.00;99434.66;5075997;28;20415;-77
2023/04/01 06:16:10;;;;;;;20.15;14.18;;;;;;;8.32;100.00;99443.19;5093949;28;20099;-73
2023/04/01 06:18:38;;;;;;;24.00;15.05;;;;;;;8.33;100.00;99444.00;5093725;28;20035;-73
2023/04/01 06:21:22;;;;;;;21.48;13.60;;;;;;;8.33;100.00;99439.66;5093853;28;20077;-75
2023/04/01 06:23:53;;;;;;;22.42;14.65;;;;;;;8.33;100.00;99449.97;5094245;28;20051;-77
2023/04/01 06:26:39;;;;;;;23.10;15.23;;;;;;;8.36;100.00;99461.81;5094001;28;20027;-76
2023/04/01 06:29:16;;;;;;;22.70;15.02;;;;;;;8.36;100.00;99461.81;5093877;28;20073;-76
2023/04/01 06:31:57;;;;;;;22.67;14.85;;;;;;;8.38;100.00;99465.09;5093906;28;20020;-75
2023/04/01 06:34:28;;;;;;;22.17;14.68;;;;;;;8.40;100.00;99468.38;5093930;28;20020;-75
2023/04/01 06:37:02;;;;;;;21.60;14.90;;;;;;;8.40;100.00;99467.53;5093944;28;20028;-75
2023/04/01 06:39:49;;;;;;;22.38;15.50;;;;;;;8.44;100.00;99476.66;5093821;28;20114;-75
2023/04/01 06:42:14;;;;;;;23.73;15.43;;;;;;;8.45;100.00;99476.53;5093525;28;20032;-76
2023/04/01 06:44:48;;;;;;;23.40;14.50;;;;;;;8.45;100.00;99465.44;5093792;28;20028;-76
2023/04/01 06:47:23;;;;;;;22.13;13.65;;;;;;;8.54;100.00;99477.59;5093429;28;20031;-77
2023/04/01 06:49:57;;;;;;;21.73;13.73;;;;;;;8.55;100.00;99481.81;5092289;28;20040;-75
2023/04/01 06:52:46;;;;;;;19.10;12.90;;;;;;;8.60;100.00;99484.84;5093470;28;20043;-75
2023/04/01 06:55:32;;;;;;;23.27;13.40;;;;;;;8.48;100.00;99471.19;5091805;28;20036;-75
2023/04/01 06:58:00;;;;;;;21.00;13.10;;;;;;;8.29;100.00;99432.31;5093039;28;20397;-77
2023/04/01 07:00:33;;;;;;;19.45;12.48;;;;;;;8.67;100.00;99495.50;5093223;28;20024;-77
2023/04/01 07:03:29;;;;;;;18.77;11.93;;;;;;;8.70;100.00;99501.22;5075101;28;20177;-78
2023/04/01 07:06:00;;;;;;;21.70;12.60;;;;;;;8.46;100.00;99459.38;5093089;28;20042;-76
2023/04/01 07:08:28;;;;;;;23.48;12.60;;;;;;;8.43;100.00;99467.31;5091036;28;20405;-78
2023/04/01 07:10:58;;;;;;;21.73;11.95;;;;;;;8.74;100.00;99515.50;5093177;28;21004;-77
2023/04/01 07:13:50;;;;;;;21.98;12.30;;;;;;;8.73;100.00;99518.19;5093051;28;20035;-77
2023/04/01 07:16:24;;;;;;;21.77;11.23;;;;;;;8.75;100.00;99522.31;5093267;28;20111;-81
2023/04/01 07:19:16;;;;;;;19.23;10.20;;;;;;;8.80;100.00;99525.34;5092027;28;20388;-81
2023/04/01 07:21:48;;;;;;;18.13;10.05;;;;;;;8.88;100.00;99525.56;5077018;28;20029;-79
2023/04/01 07:24:22;;;;;;;16.55;9.32;;;;;;;8.94;100.00;99534.56;5072808;28;20226;-79
2023/04/01 07:26:54;;;;;;;15.95;9.80;;;;;;;8.99;100.00;99534.22;5071550;28;20028;-78
2023/04/01 07:29:19;;;;;;;15.60;9.25;;;;;;;8.98;100.00;99541.13;5072704;28;20033;-78
2023/04/01 07:31:47;;;;;;;16.90;9.43;;;;;;;9.01;100.00;99540.88;5072656;28;20377;-78
2023/04/01 07:34:22;;;;;;;16.08;9.23;;;;;;;9.00;100.00;99543.59;5072458;28;20033;-79
2023/04/01 07:37:14;;;;;;;17.42;9.80;;;;;;;9.20;100.00;99553.16;5072573;28;20028;-78
2023/04/01 07:39:54;;;;;;;18.92;10.25;;;;;;;9.37;100.00;99551.88;5072356;28;20024;-78
2023/04/01 07:42:50;;;;;;;15.48;9.43;;;;;;;9.49;100.00;99562.03;5072426;28;20028;-78
2023/04/01 07:48:34;;;;;;;;;;;;;;;;;;;;;
2023/04/01 07:54:31;;;;;;;14.25;8.35;;;;;;;9.59;100.00;99576.75;5092803;28;20043;-78
2023/04/01 07:57:14;;;;;;;14.60;8.48;;;;;;;9.55;100.00;99573.63;5092687;28;20397;-76
2023/04/01 08:00:12;;;;;;;14.95;9.30;;;;;;;9.48;100.00;99578.41;5092342;28;20038;-78
2023/04/01 08:03:05;;;;;;;15.13;9.05;;;;;;;9.39;100.00;99589.44;5025779;28;20088;-79
2023/04/01 08:05:49;;;;;;;17.27;9.90;;;;;;;9.38;100.00;99590.38;5030099;28;20033;-79
2023/04/01 08:08:43;;;;;;;17.27;10.90;;;;;;;9.37;100.00;99595.66;5030004;28;20022;-80
2023/04/01 08:11:27;;;;;;;18.27;11.95;;;;;;;9.34;100.00;99596.72;5030078;28;20041;-77
2023/04/01 08:14:10;;;;;;;18.38;12.30;;;;;;;9.32;100.00;99596.00;5030465;28;20037;-88
2023/04/01 08:16:49;;;;;;;22.88;12.73;;;;;;;9.29;100.00;99598.81;5030065;28;20021;-77
2023/04/01 08:22:32;;;;;;;20.90;12.10;;;;;;;8.45;100.00;99452.56;5101329;22;20074;-79
2023/04/01 08:25:31;;;;;;;18.92;13.23;;;;;;;9.41;100.00;99618.47;4994595;28;20047;-80
2023/04/01 08:28:09;;;;;;;19.88;13.07;;;;;;;9.45;100.00;99616.50;4977937;28;20458;-83
2023/04/01 08:30:44;;;;;;;20.45;12.18;;;;;;;9.43;100.00;99632.06;4994549;28;20396;-81
2023/04/01 08:33:17;;;;;;;20.55;12.45;;;;;;;9.10;100.00;99573.66;4994380;28;20022;-81
2023/04/01 08:35:52;;;;;;;21.38;12.82;;;;;;;9.49;100.00;99629.03;4994364;28;20101;-79
2023/04/01 08:38:27;;;;;;;18.65;13.15;;;;;;;9.26;100.00;99591.34;4995799;28;20041;-79
2023/04/01 08:40:58;;;;;;;21.42;11.65;;;;;;;9.56;100.00;99634.53;4993184;28;20046;-75
2023/04/01 08:43:38;;;;;;;;;;;;;;;9.61;100.00;99634.97;4995991;28;20022;-76
2023/04/01 08:46:43;;;;;;;20.70;12.35;;;;;;;9.66;100.00;99639.78;4995538;28;19976;-76
2023/04/01 08:49:30;;;;;;;17.98;12.40;;;;;;;9.66;100.00;99644.94;4994313;28;20078;-76
2023/04/01 08:52:14;;;;;;;18.20;12.60;;;;;;;9.63;100.00;99651.13;4975434;28;20121;-77
2023/04/01 08:54:56;;;;;;;20.58;12.10;;;;;;;9.38;100.00;99608.41;4974906;28;20043;-78
2023/04/01 08:57:36;;;;;;;18.30;12.07;;;;;;;9.66;100.00;99662.97;4974633;28;20509;-75
2023/04/01 09:00:29;;;;;;;17.95;11.13;;;;;;;9.61;100.00;99662.50;4994295;28;20499;-75
2023/04/01 09:03:13;;;;;;;18.95;11.52;;;;;;;9.56;100.00;99664.63;5096729;28;20150;-78
2023/04/01 09:05:57;;;;;;;16.42;11.10;;;;;;;9.57;100.00;99674.00;5095563;28;20469;-78
2023/04/01 09:08:52;;;;;;;19.08;11.60;;;;;;;9.62;100.00;99679.59;5095460;28;20040;-75
2023/04/01 09:11:48;;;;;;;17.92;11.43;;;;;;;9.66;100.00;99684.44;5095690;28;20036;-75
2023/04/01 09:14:41;;;;;;;18.95;11.80;;;;;;;9.39;100.00;99638.41;5073303;28;20084;-78
2023/04/01 09:17:31;;;;;;;17.35;11.02;;;;;;;9.76;100.00;99694.84;5054766;28;20044;-77
2023/04/01 09:20:26;;;;;;;15.13;11.85;;;;;;;9.70;100.00;99688.38;5055109;28;20094;-76
2023/04/01 09:22:51;;;;;;;18.13;11.32;;;;;;;9.72;100.00;99699.41;5055160;28;20086;-76
2023/04/01 09:25:30;;;;;;;19.88;11.02;;;;;;;9.58;100.00;99675.63;5055376;28;20111;-81
2023/04/01 09:28:27;;;;;;;15.85;10.68;;;;;;;9.78;100.00;99705.84;5053973;28;20119;-81
2023/04/01 09:31:22;;;;;;;17.77;11.82;;;;;;;9.89;100.00;99705.00;5055107;28;20025;-77
2023/04/01 09:34:16;;;;;;;16.55;11.18;;;;;;;9.91;100.00;99711.69;5054738;28;20474;-85
2023/04/01 09:36:46;;;;;;;17.45;11.23;;;;;;;9.87;100.00;99712.88;5032772;28;20038;-76
2023/04/01 09:39:19;;;;;;;16.40;11.48;;;;;;;9.86;100.00;99718.97;5032758;28;20038;-83
2023/04/01 09:42:00;;;;;;;17.13;11.15;;;;;;;9.83;100.00;99713.22;5032758;28;20033;-81
2023/04/01 09:44:34;;;;;;;15.60;10.33;;;;;;;9.68;100.00;99708.31;5033255;28;20029;-79
2023/04/01 09:47:08;;;;;;;15.25;9.93;;;;;;;9.77;100.00;99723.06;5032453;28;20765;-77
2023/04/01 09:50:06;;;;;;;14.77;9.75;;;;;;;9.77;100.00;99715.34;5032456;28;20409;-77
2023/04/01 09:52:38;;;;;;;14.27;8.95;;;;;;;9.76;100.00;99725.78;5032466;28;20025;-78
2023/04/01 09:55:53;;;;;;;12.55;8.38;;;;;;;9.79;100.00;99728.09;5032403;28;20074;-80
2023/04/01 09:58:44;;;;;;;12.98;8.30;;;;;;;9.81;100.00;99731.38;4973511;28;20039;-77
2023/04/01 10:01:31;;;;;;;12.45;8.75;;;;;;;9.86;100.00;99736.19;4973130;28;20035;-77
2023/04/01 10:04:32;;;;;;;12.77;9.60;;;;;;;9.96;100.00;99735.38;4973562;28;20126;-77
2023/04/01 10:07:25;;;;;;;10.35;7.90;;;;;;;10.12;100.00;99739.31;4973451;28;20042;-77
2023/04/01 10:10:18;;;;;;;11.30;8.02;;;;;;;10.25;100.00;99742.63;4973461;28;20039;-77
2023/04/01 10:13:11;;;;;;;10.00;7.72;;;;;;;10.42;100.00;99746.44;4975411;28;20164;-76
2023/04/01 10:15:37;;;;;;;9.35;7.07;;;;;;;10.59;100.00;99751.88;5011947;28;20065;-77
2023/04/01 10:18:39;;;;;;;9.07;6.43;;;;;;;10.72;100.00;99749.16;5012152;28;20188;-77
2023/04/01 10:21:49;;;;;;;8.40;5.70;;;;;;;10.71;100.00;99741.50;5004974;28;20053;-79
2023/04/01 10:24:56;;;;;;;8.02;5.93;;;;;;;10.87;100.00;99760.00;5012232;28;20399;-79
2023/04/01 10:28:10;;;;;;;9.13;6.03;;;;;;;11.02;100.00;99771.69;4972998;28;20515;-78
2023/04/01 10:31:13;;;;;;;8.88;6.05;;;;;;;11.17;100.00;99765.25;4915169;29;20044;-78
2023/04/01 10:33:49;;;;;;;9.32;6.50;;;;;;;11.51;100.00;99767.63;4956709;28;20037;-77
2023/04/01 10:36:32;;;;;;;7.75;6.28;;;;;;;11.60;100.00;99773.78;4982976;28;20034;-77
2023/04/01 10:39:19;;;;;;;9.73;7.57;;;;;;;11.43;100.00;99777.78;4990955;28;20042;-77
2023/04/01 10:42:03;;;;;;;8.77;7.07;;;;;;;11.24;100.00;99768.16;4967273;28;20038;-76
2023/04/01 10:45:08;;;;;;;9.45;7.93;;;;;;;11.19;100.00;99768.50;4990599;28;20041;-78
2023/04/01 10:47:58;;;;;;;9.05;7.30;;;;;;;11.27;100.00;99773.06;4956278;28;20041;-76
2023/04/01 10:50:42;;;;;;;9.98;7.15;;;;;;;11.12;100.00;99782.91;4972915;28;20351;-76
2023/04/01 10:53:22;;;;;;;9.43;7.05;;;;;;;11.01;100.00;99779.53;4972269;28;20049;-75
2023/04/01 10:55:54;;;;;;;9.38;7.85;;;;;;;11.02;100.00;99781.19;4972368;28;20042;-75
2023/04/01 10:58:54;;;;;;;9.30;7.30;;;;;;;11.16;100.00;99783.47;4972246;28;20381;-76
2023/04/01 11:01:47;;;;;;;9.85;7.60;;;;;;;11.33;100.00;99790.66;4971917;28;20170;-75
2023/04/01 11:04:31;;;;;;;9.80;8.52;;;;;;;11.37;100.00;99793.78;4989009;28;20100;-75
2023/04/01 11:07:34;;;;;;;12.98;10.63;;;;;;;11.26;100.00;99797.25;5030924;28;20041;-75
2023/04/01 11:10:31;;;;;;;10.60;9.50;;;;;;;11.04;100.00;99793.03;5052932;28;20025;-75
2023/04/01 11:13:34;;;;;;;11.48;9.52;;;;;;;10.94;100.00;99788.75;5053010;28;20027;-76
2023/04/01 11:16:08;;;;;;;12.48;9.68;;;;;;;10.87;100.00;99799.56;5051297;28;20036;-76
2023/04/01 11:19:10;;;;;;;11.63;9.15;;;;;;;10.85;100.00;99798.88;5052706;28;20040;-78
2023/04/01 11:22:12;;;;;;;13.68;10.25;;;;;;;10.82;100.00;99804.28;5052554;28;20076;-76
2023/04/01 11:25:11;;;;;;;12.63;10.73;;;;;;;10.82;100.00;99814.63;5052537;28;20033;-75
2023/04/01 11:27:42;;;;;;;13.00;11.25;;;;;;;10.80;100.00;99807.91;5052685;28;20049;-76
2023/04/01 11:30:43;;;;;;;16.83;12.65;;;;;;;10.65;100.00;99798.81;5052384;28;20036;-75
2023/04/01 11:33:22;;;;;;;17.02;14.90;;;;;;;10.70;100.00;99817.34;5052024;28;20036;-77
2023/04/01 11:36:09;;;;;;;18.40;15.70;;;;;;;10.33;100.00;99773.81;5052589;28;20026;-77
2023/04/01 11:39:04;;;;;;;16.60;13.85;;;;;;;10.68;100.00;99822.63;5052601;28;20120;-78
2023/04/01 11:42:09;;;;;;;15.80;12.98;;;;;;;10.98;100.00;99823.69;5052309;28;20025;-85
2023/04/01 11:44:43;;;;;;;14.25;11.80;;;;;;;11.09;100.00;99836.56;5052524;28;20051;-84
2023/04/01 11:47:38;;;;;;;14.02;10.45;;;;;;;11.14;100.00;99832.69;5052396;28;20112;-83
2023/04/01 11:50:20;;;;;;;13.75;10.63;;;;;;;11.16;100.00;99837.72;5050859;28;20137;-83
2023/04/01 11:53:00;;;;;;;13.30;9.63;;;;;;;11.20;100.00;99842.50;5052589;28;20041;-84
2023/04/01 11:55:32;;;;;;;9.75;7.57;;;;;;;11.30;100.00;99841.75;5052202;28;20082;-83
2023/04/01 11:58:15;;;;;;;12.65;8.45;;;;;;;11.53;100.00;99852.81;5052255;28;20360;-83
2023/04/01 12:00:41;;;;;;;9.18;6.95;;;;;;;11.49;100.00;99853.06;5052357;28;20390;-79
2023/04/01 12:03:25;;;;;;;7.93;5.90;;;;;;;11.37;100.00;99853.25;5059843;28;20021;-76
2023/04/01 12:06:18;;;;;;;10.23;6.32;;;;;;;11.40;100.00;99860.75;5072705;28;20056;-77
2023/04/01 12:09:18;;;;;;;9.35;7.22;;;;;;;11.33;100.00;99855.28;5088474;28;20064;-80
2023/04/01 12:12:20;;;;;;;10.20;7.35;;;;;;;11.28;100.00;99866.91;5072132;28;20044;-78
2023/04/01 12:15:20;;;;;;;8.73;6.55;;;;;;;11.17;100.00;99867.78;5071878;28;20880;-82